Time;durP1;ratioP1;P1;durP2;ratioP2;P2;SDS_P1;SDS_P2;PMS_P1;PMS_P2;Temp;Humidity;BMP_temperature;BMP_pressure;BME280_temperature;BME280_humidity;BME280_pressure;Samples;Min_cycle;Max_cycle;Signal;HPM_P1;HPM_P2
2021/12/08 09:45:47;;;;;;;10.00;3.50;;;4.40;99.90;;;;;;5091845;28;20783;-65
2021/12/08 09:48:14;;;;;;;14.18;3.83;;;4.50;99.90;;;;;;5091294;28;20052;-65
2021/12/08 09:50:40;;;;;;;12.05;3.60;;;4.50;99.90;;;;;;5090895;28;20036;-65
2021/12/08 09:53:07;;;;;;;13.27;4.18;;;4.60;99.90;;;;;;5079805;28;20507;-66
2021/12/08 09:55:35;;;;;;;10.65;3.53;;;4.60;99.90;;;;;;5067832;28;20091;-63
2021/12/08 09:58:01;;;;;;;12.27;3.17;;;4.60;99.90;;;;;;5085364;28;20365;-65
2021/12/08 10:00:35;;;;;;;11.13;3.65;;;4.70;99.90;;;;;;5060264;28;20049;-66
2021/12/08 10:03:03;;;;;;;10.13;3.97;;;4.70;99.90;;;;;;5061312;28;20045;-65
2021/12/08 10:05:31;;;;;;;15.20;4.47;;;4.70;99.90;;;;;;5043585;28;20102;-65
2021/12/08 10:07:58;;;;;;;10.68;3.70;;;4.70;99.90;;;;;;5059570;28;20425;-64
2021/12/08 10:10:25;;;;;;;12.85;3.25;;;4.70;99.90;;;;;;5058733;28;20053;-66
2021/12/08 10:12:51;;;;;;;11.50;3.75;;;4.70;99.90;;;;;;5060997;28;20072;-64
2021/12/08 10:15:19;;;;;;;12.98;3.83;;;4.80;99.90;;;;;;5058383;28;20081;-63
2021/12/08 10:17:46;;;;;;;10.88;3.40;;;4.70;99.90;;;;;;5058468;28;20048;-64
2021/12/08 10:20:31;;;;;;;11.02;3.50;;;4.70;99.90;;;;;;5059965;28;20477;-64
2021/12/08 10:23:14;;;;;;;8.70;3.03;;;4.80;99.90;;;;;;5067424;28;20468;-64
2021/12/08 10:25:54;;;;;;;10.27;3.55;;;4.80;99.90;;;;;;5060027;28;20044;-64
2021/12/08 10:28:26;;;;;;;16.55;3.60;;;4.90;99.90;;;;;;5060878;28;20041;-64
2021/12/08 10:30:57;;;;;;;9.98;3.00;;;4.80;99.90;;;;;;5059883;28;20523;-65
2021/12/08 10:34:01;;;;;;;10.40;3.10;;;4.80;99.90;;;;;;5060669;28;20084;-65
2021/12/08 10:37:01;;;;;;;12.50;3.25;;;4.90;99.90;;;;;;5065797;28;20400;-64
2021/12/08 10:39:31;;;;;;;9.55;2.92;;;4.90;99.90;;;;;;5038036;28;20087;-65
2021/12/08 10:42:02;;;;;;;9.98;3.30;;;4.90;99.90;;;;;;5051382;28;20045;-63
2021/12/08 10:44:46;;;;;;;10.10;3.65;;;5.00;99.90;;;;;;5034704;28;20131;-64
2021/12/08 10:47:16;;;;;;;11.27;3.80;;;5.00;99.90;;;;;;5085619;28;20057;-64
2021/12/08 10:55:00;;;;;;;10.38;2.70;;;5.10;99.90;;;;;;5047269;28;20131;-64
2021/12/08 10:57:29;;;;;;;10.20;3.13;;;5.20;99.90;;;;;;5035767;28;20049;-63
2021/12/08 11:00:12;;;;;;;10.48;2.70;;;5.20;99.90;;;;;;5036919;28;20075;-64
2021/12/08 11:02:50;;;;;;;9.88;3.05;;;5.20;99.90;;;;;;5035293;28;20124;-62
2021/12/08 11:05:25;;;;;;;9.52;2.60;;;5.20;99.90;;;;;;5042928;28;20103;-63
2021/12/08 11:07:58;;;;;;;12.18;2.47;;;5.20;99.90;;;;;;5039624;28;20116;-64
2021/12/08 11:10:24;;;;;;;8.00;2.50;;;5.30;99.90;;;;;;5052300;28;20057;-64
2021/12/08 11:12:49;;;;;;;9.13;2.88;;;5.20;99.90;;;;;;5042967;28;20500;-63
2021/12/08 11:15:23;;;;;;;9.48;2.80;;;5.30;99.90;;;;;;5047880;28;20071;-63
2021/12/08 11:18:13;;;;;;;12.40;3.28;;;5.30;99.90;;;;;;5056018;28;20088;-63
2021/12/08 11:20:49;;;;;;;13.80;2.75;;;5.30;99.90;;;;;;5039112;28;20072;-64
2021/12/08 11:23:28;;;;;;;9.75;2.58;;;5.30;99.90;;;;;;5048646;28;20055;-65
2021/12/08 11:25:56;;;;;;;10.70;2.90;;;5.30;99.90;;;;;;5036618;28;20049;-64
2021/12/08 11:28:33;;;;;;;8.05;2.53;;;5.30;99.90;;;;;;5035873;28;20053;-62
2021/12/08 11:31:09;;;;;;;7.63;3.05;;;5.30;99.90;;;;;;5053900;28;20195;-64
2021/12/08 11:33:41;;;;;;;7.68;2.45;;;5.30;99.90;;;;;;5055335;28;20083;-63
2021/12/08 11:36:14;;;;;;;11.00;2.50;;;5.40;99.90;;;;;;5039437;28;20053;-63
2021/12/08 11:38:41;;;;;;;10.23;2.97;;;5.40;99.90;;;;;;5055077;28;20045;-63
2021/12/08 11:41:24;;;;;;;9.13;2.45;;;5.40;99.90;;;;;;5036672;28;20056;-63
2021/12/08 11:43:51;;;;;;;9.50;2.88;;;5.50;99.90;;;;;;5032890;28;20053;-63
2021/12/08 11:46:18;;;;;;;10.88;3.05;;;5.40;99.90;;;;;;5035426;28;20057;-62
2021/12/08 11:49:14;;;;;;;9.82;3.92;;;5.40;99.90;;;;;;5034600;28;20049;-63
2021/12/08 11:51:43;;;;;;;8.73;3.00;;;5.40;99.90;;;;;;5035518;28;20103;-63
2021/12/08 11:54:27;;;;;;;11.00;2.88;;;5.40;99.90;;;;;;5035325;28;20486;-64
2021/12/08 11:57:11;;;;;;;8.40;3.20;;;5.40;99.90;;;;;;5035339;28;20053;-63
2021/12/08 11:59:55;;;;;;;9.13;3.63;;;5.40;99.90;;;;;;5035175;28;20135;-63
2021/12/08 12:02:29;;;;;;;7.47;2.70;;;5.30;99.90;;;;;;5035220;28;20064;-63
2021/12/08 12:04:57;;;;;;;9.90;2.90;;;5.30;99.90;;;;;;5038248;28;20057;-65
2021/12/08 12:07:23;;;;;;;7.43;2.42;;;5.30;99.90;;;;;;5043168;28;20446;-63
2021/12/08 12:09:49;;;;;;;10.40;3.05;;;;;;;;;;5045680;28;20547;-63
2021/12/08 12:12:15;;;;;;;10.60;3.05;;;;;;;;;;5043955;28;20548;-64
2021/12/08 12:14:42;;;;;;;9.50;2.97;;;4.40;99.90;;;;;;5044093;28;20097;-63
2021/12/08 12:17:08;;;;;;;6.72;2.80;;;5.30;99.90;;;;;;5045508;28;20447;-63
2021/12/08 12:19:42;;;;;;;7.60;2.58;;;5.30;99.90;;;;;;5045813;28;20056;-64
2021/12/08 12:22:16;;;;;;;8.40;3.05;;;5.30;99.90;;;;;;5054708;28;20045;-62
2021/12/08 12:24:54;;;;;;;9.02;3.17;;;5.30;99.90;;;;;;5054550;28;20036;-63
2021/12/08 12:27:38;;;;;;;8.25;3.05;;;5.30;99.90;;;;;;5053973;28;20052;-63
2021/12/08 12:30:08;;;;;;;37.53;25.80;;;5.30;99.90;;;;;;5054684;28;20048;-63
2021/12/08 12:32:54;;;;;;;38.13;21.27;;;5.30;99.90;;;;;;5054320;28;20055;-63
2021/12/08 12:35:30;;;;;;;9.23;5.25;;;4.60;99.90;;;;;;5050601;28;20055;-63
2021/12/08 12:38:11;;;;;;;7.32;2.47;;;6.70;99.90;;;;;;5053185;28;20480;-63
2021/12/08 12:45:26;;;;;;;9.15;2.85;;;5.40;99.90;;;;;;5111847;27;20675;-65
2021/12/08 12:48:13;;;;;;;6.75;2.90;;;6.20;99.90;;;;;;5110895;28;20106;-65
2021/12/08 12:50:52;;;;;;;;;;;5.40;99.90;;;;;;5110520;28;20048;-65
2021/12/08 12:53:31;;;;;;;7.78;2.67;;;5.40;99.90;;;;;;5101321;28;19920;-65
2021/12/08 12:55:56;;;;;;;8.65;2.65;;;5.40;99.90;;;;;;5079219;28;20048;-66
2021/12/08 12:58:22;;;;;;;9.13;2.28;;;5.50;99.90;;;;;;5080295;28;20049;-64
2021/12/08 13:01:10;;;;;;;9.88;2.90;;;5.50;99.90;;;;;;5079550;28;20052;-65
2021/12/08 13:03:54;;;;;;;7.65;2.45;;;5.50;99.90;;;;;;5080890;28;20044;-66
2021/12/08 13:07:03;;;;;;;8.80;2.88;;;5.50;99.90;;;;;;5079013;28;20049;-65
2021/12/08 13:09:47;;;;;;;;;;;5.50;99.90;;;;;;5027624;28;20056;-66
2021/12/08 13:12:14;;;;;;;6.68;2.28;;;5.50;99.90;;;;;;5079077;28;19926;-64
2021/12/08 13:14:41;;;;;;;7.10;2.45;;;5.50;99.90;;;;;;5077690;28;20044;-64
2021/12/08 13:17:32;;;;;;;8.25;2.47;;;5.50;99.90;;;;;;5084911;28;20043;-65
2021/12/08 13:20:03;;;;;;;8.82;2.40;;;5.60;99.90;;;;;;5077333;28;20056;-65
2021/12/08 13:22:56;;;;;;;12.48;2.55;;;4.80;99.90;;;;;;5085312;28;20048;-65
2021/12/08 13:28:19;;;;;;;8.02;2.20;;;5.70;99.90;;;;;;5090338;28;20055;-65
2021/12/08 13:30:52;;;;;;;9.98;2.22;;;6.10;99.90;;;;;;5089734;28;20054;-64
2021/12/08 13:33:26;;;;;;;8.90;2.47;;;5.60;99.90;;;;;;5090168;28;20444;-66
2021/12/08 13:35:53;;;;;;;23.30;12.63;;;5.60;99.90;;;;;;5086533;28;20051;-65
2021/12/08 13:38:20;;;;;;;11.68;6.25;;;;;;;;;;5080593;28;20074;-64
2021/12/08 13:40:56;;;;;;;9.05;2.30;;;5.50;99.90;;;;;;5080580;28;20082;-64
2021/12/08 13:43:51;;;;;;;7.97;2.30;;;6.20;99.90;;;;;;5080316;28;20400;-64
2021/12/08 13:46:36;;;;;;;10.27;2.25;;;5.80;99.90;;;;;;5066606;28;20056;-65
2021/12/08 13:49:17;;;;;;;8.88;2.30;;;5.50;99.90;;;;;;5080553;28;20132;-64
2021/12/08 13:52:17;;;;;;;6.90;2.10;;;5.50;99.90;;;;;;5080334;28;20040;-64
2021/12/08 13:54:52;;;;;;;6.57;2.50;;;5.50;99.90;;;;;;5075346;28;20043;-65
2021/12/08 13:57:38;;;;;;;6.43;2.53;;;5.50;99.90;;;;;;5073600;28;20048;-66
2021/12/08 14:00:04;;;;;;;6.63;1.85;;;;;;;;;;5060802;28;20105;-65
2021/12/08 14:02:37;;;;;;;10.30;2.40;;;5.50;99.90;;;;;;5066837;28;20052;-64
2021/12/08 14:05:37;;;;;;;8.02;2.13;;;5.50;99.90;;;;;;5065013;28;20044;-65
2021/12/08 14:08:09;;;;;;;7.93;2.25;;;5.60;99.90;;;;;;5080551;28;20056;-65
2021/12/08 14:10:41;;;;;;;6.10;2.25;;;5.60;99.90;;;;;;5066579;28;20044;-66
2021/12/08 14:13:10;;;;;;;8.25;2.35;;;5.60;99.90;;;;;;5060233;28;20396;-62
2021/12/08 14:15:48;;;;;;;7.93;2.65;;;5.60;99.90;;;;;;5067966;28;20048;-64
2021/12/08 14:18:21;;;;;;;10.65;3.38;;;5.60;99.90;;;;;;5067948;28;20041;-64
2021/12/08 14:21:20;;;;;;;7.70;3.10;;;5.60;99.90;;;;;;5089155;28;20178;-62
2021/12/08 14:23:57;;;;;;;7.50;3.40;;;5.60;99.90;;;;;;5065152;28;20087;-64
2021/12/08 14:26:28;;;;;;;9.95;3.10;;;5.60;99.90;;;;;;5065389;28;20503;-62
2021/12/08 14:29:00;;;;;;;9.80;3.20;;;5.60;99.90;;;;;;5063708;28;20103;-65
2021/12/08 14:31:29;;;;;;;8.50;3.35;;;5.60;99.90;;;;;;5055734;28;20049;-63
2021/12/08 14:33:57;;;;;;;12.10;3.28;;;5.50;99.90;;;;;;5054748;28;20106;-62
2021/12/08 14:36:31;;;;;;;7.20;3.00;;;5.50;99.90;;;;;;5054665;28;20087;-65
2021/12/08 14:38:59;;;;;;;8.80;3.30;;;5.50;99.90;;;;;;5055919;28;20064;-63
2021/12/08 14:41:29;;;;;;;7.82;3.45;;;5.50;99.90;;;;;;5068175;28;20048;-64
2021/12/08 14:44:13;;;;;;;8.35;3.10;;;5.50;99.90;;;;;;5068629;28;20071;-63
2021/12/08 14:46:42;;;;;;;9.82;3.22;;;5.50;99.90;;;;;;5072793;28;20045;-65
2021/12/08 14:49:11;;;;;;;8.10;3.13;;;5.40;99.90;;;;;;5059201;28;20477;-63
2021/12/08 14:51:38;;;;;;;7.93;2.58;;;5.40;99.90;;;;;;5056346;28;20045;-64
2021/12/08 14:54:30;;;;;;;10.32;3.00;;;5.40;99.90;;;;;;5066260;28;20112;-63
2021/12/08 14:57:20;;;;;;;7.63;3.03;;;5.30;99.90;;;;;;5050884;28;20083;-63
2021/12/08 14:59:46;;;;;;;6.68;2.90;;;5.30;99.90;;;;;;5069865;28;20056;-64
2021/12/08 15:02:14;;;;;;;8.57;2.63;;;5.20;99.90;;;;;;5054416;28;20386;-62
2021/12/08 15:04:41;;;;;;;9.85;3.03;;;5.20;99.90;;;;;;5082016;28;20072;-64
2021/12/08 15:07:08;;;;;;;11.85;3.05;;;5.10;99.90;;;;;;5063979;28;20045;-62
2021/12/08 15:09:35;;;;;;;7.20;2.90;;;5.70;99.90;;;;;;5070320;28;20191;-64
2021/12/08 15:12:03;;;;;;;9.27;3.08;;;5.20;99.90;;;;;;5070337;28;20048;-65
2021/12/08 15:14:41;;;;;;;7.40;2.80;;;5.00;99.90;;;;;;5070161;28;20047;-62
2021/12/08 15:17:07;;;;;;;7.78;3.15;;;5.00;99.90;;;;;;5075653;28;20396;-63
2021/12/08 15:19:33;;;;;;;8.38;3.40;;;5.00;99.90;;;;;;5066303;28;20045;-66
2021/12/08 15:22:10;;;;;;;7.13;3.03;;;4.90;99.90;;;;;;5064232;28;20158;-65
2021/12/08 15:24:36;;;;;;;13.18;5.95;;;4.90;99.90;;;;;;5073680;28;20041;-65
2021/12/08 15:27:14;;;;;;;5.82;3.22;;;4.90;99.90;;;;;;5073393;28;20128;-62
2021/12/08 15:29:43;;;;;;;10.63;3.60;;;4.80;99.90;;;;;;5074520;28;20498;-62
2021/12/08 15:32:15;;;;;;;8.80;3.42;;;4.90;99.90;;;;;;5074515;28;20488;-64
2021/12/08 15:34:42;;;;;;;7.63;3.50;;;4.80;99.90;;;;;;5075190;28;20048;-64
2021/12/08 15:37:13;;;;;;;7.25;3.33;;;4.80;99.90;;;;;;5073649;28;20051;-65
2021/12/08 15:39:41;;;;;;;15.10;3.63;;;4.80;99.90;;;;;;5073439;28;20048;-64
2021/12/08 15:42:09;;;;;;;8.13;2.95;;;4.80;99.90;;;;;;5074261;28;20052;-64
2021/12/08 15:44:36;;;;;;;7.88;3.28;;;4.70;99.90;;;;;;5072763;28;20067;-65
2021/12/08 15:47:03;;;;;;;9.38;3.60;;;5.00;99.90;;;;;;5072981;28;20544;-65
2021/12/08 15:49:31;;;;;;;7.75;3.13;;;4.60;99.90;;;;;;5074161;28;20083;-64
2021/12/08 15:52:03;;;;;;;9.05;3.35;;;4.60;99.90;;;;;;5073935;28;20041;-65
2021/12/08 15:54:30;;;;;;;9.57;3.28;;;4.60;99.90;;;;;;5073151;28;20123;-65
2021/12/08 15:57:02;;;;;;;6.38;2.90;;;4.50;99.90;;;;;;5072807;28;20056;-65
2021/12/08 15:59:32;;;;;;;7.18;3.40;;;4.50;99.90;;;;;;5073029;28;20076;-64
2021/12/08 16:02:00;;;;;;;7.68;2.95;;;4.50;99.90;;;;;;5067318;28;20052;-64
2021/12/08 16:04:26;;;;;;;22.48;9.30;;;4.50;99.90;;;;;;5063065;28;20051;-67
2021/12/08 16:06:55;;;;;;;8.60;3.72;;;4.50;99.90;;;;;;5063393;28;20481;-64
2021/12/08 16:09:30;;;;;;;8.60;4.20;;;4.40;99.90;;;;;;5062269;28;20045;-64
2021/12/08 16:12:05;;;;;;;10.07;3.42;;;4.40;99.90;;;;;;5062753;28;20044;-65
2021/12/08 16:14:49;;;;;;;8.98;3.60;;;4.40;99.90;;;;;;5065092;28;20033;-66
2021/12/08 16:17:15;;;;;;;6.93;3.13;;;4.40;99.90;;;;;;5063444;28;20067;-66
2021/12/08 16:19:50;;;;;;;9.10;3.42;;;4.30;99.90;;;;;;5058440;28;20044;-62
2021/12/08 16:22:17;;;;;;;7.82;3.65;;;4.30;99.90;;;;;;5052414;28;20143;-64
2021/12/08 16:24:43;;;;;;;7.07;3.33;;;4.30;99.90;;;;;;5052099;28;20133;-65
2021/12/08 16:27:19;;;;;;;;;;;4.30;99.90;;;;;;5051939;28;20049;-66
2021/12/08 16:29:47;;;;;;;9.18;3.97;;;4.30;99.90;;;;;;5053604;28;20083;-67
2021/12/08 16:32:16;;;;;;;8.98;3.67;;;4.20;99.90;;;;;;5052580;28;20049;-65
2021/12/08 16:34:43;;;;;;;10.30;4.40;;;4.20;99.90;;;;;;5052384;28;20057;-65
2021/12/08 16:37:10;;;;;;;10.32;3.97;;;4.20;99.90;;;;;;5051932;28;20045;-65
2021/12/08 16:39:44;;;;;;;8.43;3.45;;;4.20;99.90;;;;;;5053252;28;20056;-64
2021/12/08 16:44:55;;;;;;;7.88;3.80;;;4.20;99.90;;;;;;5053013;28;20072;-64
2021/12/08 16:47:21;;;;;;;7.75;3.88;;;4.10;99.90;;;;;;5053461;28;20057;-66
2021/12/08 16:49:47;;;;;;;11.45;3.88;;;4.10;99.90;;;;;;5052526;28;20041;-65
2021/12/08 16:52:13;;;;;;;8.43;3.90;;;4.10;99.90;;;;;;5053290;28;20072;-65
2021/12/08 16:54:39;;;;;;;11.45;4.00;;;4.20;99.90;;;;;;5035856;28;20469;-66
2021/12/08 16:57:05;;;;;;;8.65;4.07;;;4.10;99.90;;;;;;5052177;28;20500;-66
2021/12/08 16:59:31;;;;;;;7.60;3.85;;;4.10;99.90;;;;;;5053437;28;20118;-67
2021/12/08 17:01:57;;;;;;;9.65;4.13;;;4.10;99.90;;;;;;5053878;28;20461;-63
2021/12/08 17:04:23;;;;;;;8.40;4.18;;;4.10;99.90;;;;;;5053155;28;20041;-64
2021/12/08 17:06:50;;;;;;;8.98;3.70;;;4.10;99.90;;;;;;5064711;28;20040;-65
2021/12/08 17:09:15;;;;;;;8.45;3.83;;;4.10;99.90;;;;;;5089969;28;20132;-65
2021/12/08 17:11:43;;;;;;;6.55;3.60;;;4.10;99.90;;;;;;5066219;28;20129;-65
2021/12/08 17:14:09;;;;;;;5.88;3.28;;;4.10;99.90;;;;;;5043984;28;20132;-66
2021/12/08 17:16:37;;;;;;;9.85;3.75;;;4.10;99.90;;;;;;5062069;28;20091;-67
2021/12/08 17:19:07;;;;;;;9.50;4.35;;;4.10;99.90;;;;;;5063529;28;20129;-65
2021/12/08 17:21:33;;;;;;;8.50;4.00;;;4.10;99.90;;;;;;5063716;28;20131;-66
2021/12/08 17:23:59;;;;;;;;;;;4.00;99.90;;;;;;5062254;28;20455;-66
2021/12/08 17:26:26;;;;;;;8.13;3.90;;;4.10;99.90;;;;;;5061731;28;19928;-66
2021/12/08 17:28:52;;;;;;;10.35;4.20;;;5.00;99.90;;;;;;5062825;28;20072;-66
2021/12/08 17:31:17;;;;;;;5.78;3.53;;;4.10;99.90;;;;;;5065948;28;20076;-66
2021/12/08 17:33:43;;;;;;;10.10;4.30;;;4.00;99.90;;;;;;5065429;28;20538;-64
2021/12/08 17:36:10;;;;;;;8.55;3.75;;;4.00;99.90;;;;;;5064641;28;20366;-65
2021/12/08 17:38:36;;;;;;;11.77;4.00;;;4.00;99.90;;;;;;5063753;28;20048;-65
2021/12/08 17:41:06;;;;;;;11.20;4.13;;;4.00;99.90;;;;;;5067288;28;20044;-66
2021/12/08 17:43:33;;;;;;;7.15;3.45;;;4.00;99.90;;;;;;5064440;28;20508;-65
2021/12/08 17:46:00;;;;;;;;;;;4.10;99.90;;;;;;5067389;28;20404;-66
2021/12/08 17:48:29;;;;;;;10.10;3.75;;;3.90;99.90;;;;;;5068880;28;19924;-66
2021/12/08 17:50:55;;;;;;;10.52;4.10;;;4.00;99.90;;;;;;5072267;28;20053;-65
2021/12/08 17:53:20;;;;;;;10.57;4.20;;;3.90;99.90;;;;;;5063825;28;20123;-64
2021/12/08 17:55:46;;;;;;;14.20;4.20;;;3.90;99.90;;;;;;5053055;28;20127;-65
2021/12/08 17:58:12;;;;;;;9.32;4.35;;;3.90;99.90;;;;;;5075200;28;20049;-65
2021/12/08 18:00:41;;;;;;;7.60;3.50;;;3.80;99.90;;;;;;5075980;28;20504;-64
2021/12/08 18:03:07;;;;;;;9.63;4.00;;;5.70;99.90;;;;;;5068961;28;20053;-65
2021/12/08 18:05:33;;;;;;;7.80;3.80;;;3.70;99.90;;;;;;5064871;28;20389;-65
2021/12/08 18:07:59;;;;;;;9.77;5.03;;;3.80;99.90;;;;;;5065617;28;20055;-64
2021/12/08 18:10:28;;;;;;;8.02;4.05;;;3.80;99.90;;;;;;5064612;28;20068;-66
2021/12/08 18:12:55;;;;;;;7.97;4.22;;;3.80;99.90;;;;;;5066663;28;20078;-64
2021/12/08 18:15:21;;;;;;;8.55;3.92;;;3.70;99.90;;;;;;5060542;28;20136;-65
2021/12/08 18:17:47;;;;;;;8.98;3.83;;;3.70;99.90;;;;;;5038457;28;20041;-64
2021/12/08 18:20:21;;;;;;;12.85;3.80;;;3.80;99.90;;;;;;5055247;28;20091;-63
2021/12/08 18:22:47;;;;;;;9.05;4.15;;;3.70;99.90;;;;;;5054921;28;20315;-64
2021/12/08 18:25:14;;;;;;;8.70;4.20;;;3.70;99.90;;;;;;5054391;28;20048;-63
2021/12/08 18:27:40;;;;;;;6.95;3.70;;;3.70;99.90;;;;;;5055774;28;20052;-63
2021/12/08 18:30:08;;;;;;;7.57;3.15;;;3.70;99.90;;;;;;5055704;28;20048;-63
2021/12/08 18:32:34;;;;;;;7.22;3.40;;;;;;;;;;5054668;28;20044;-64
2021/12/08 18:35:14;;;;;;;9.07;3.70;;;3.70;99.90;;;;;;5071968;28;20091;-61
2021/12/08 18:37:40;;;;;;;11.57;4.57;;;;;;;;;;5059182;28;20063;-64
2021/12/08 18:40:07;;;;;;;10.82;3.72;;;3.70;99.90;;;;;;5075485;28;20048;-64
2021/12/08 18:42:33;;;;;;;8.70;4.18;;;3.70;99.90;;;;;;5075357;28;20048;-62
2021/12/08 18:44:59;;;;;;;8.55;3.95;;;3.70;99.90;;;;;;5073967;28;20060;-62
2021/12/08 18:47:28;;;;;;;9.27;3.80;;;3.70;99.90;;;;;;5074525;28;20147;-64
2021/12/08 18:49:54;;;;;;;6.65;3.63;;;3.70;99.90;;;;;;5075248;28;20500;-63
2021/12/08 18:52:21;;;;;;;9.02;3.75;;;3.70;99.90;;;;;;5075394;28;20071;-62
2021/12/08 18:54:47;;;;;;;;;;;3.70;99.90;;;;;;5075904;28;20510;-64
2021/12/08 18:57:13;;;;;;;7.78;3.50;;;;;;;;;;5074459;28;19920;-64
2021/12/08 18:59:40;;;;;;;8.35;3.65;;;3.70;99.90;;;;;;5073876;28;20052;-64
2021/12/08 19:02:06;;;;;;;8.93;3.50;;;3.70;99.90;;;;;;5074362;28;20048;-62
2021/12/08 19:04:33;;;;;;;;;;;3.60;99.90;;;;;;5075483;28;20090;-63
2021/12/08 19:07:02;;;;;;;11.15;4.03;;;3.60;99.90;;;;;;5075092;28;19924;-65
2021/12/08 19:09:28;;;;;;;8.15;4.10;;;3.60;99.90;;;;;;5075082;28;20412;-59
2021/12/08 19:11:55;;;;;;;10.73;3.97;;;;;;;;;;5075520;28;20052;-63
2021/12/08 19:14:21;;;;;;;11.85;4.13;;;;;;;;;;5075385;28;20052;-65
2021/12/08 19:16:50;;;;;;;11.15;5.95;;;3.50;99.90;;;;;;5073593;28;20075;-64
2021/12/08 19:19:15;;;;;;;8.95;4.60;;;3.50;99.90;;;;;;5074721;28;20061;-64
2021/12/08 19:21:41;;;;;;;7.50;4.25;;;3.60;99.90;;;;;;5075579;28;20101;-65
2021/12/08 19:24:08;;;;;;;9.38;4.00;;;3.50;99.90;;;;;;5073471;28;20056;-64
2021/12/08 19:26:35;;;;;;;14.05;4.68;;;3.50;99.90;;;;;;5074608;28;20055;-65
2021/12/08 19:29:01;;;;;;;8.90;4.40;;;3.50;99.90;;;;;;5073879;28;20044;-64
2021/12/08 19:31:27;;;;;;;8.55;4.25;;;3.50;99.90;;;;;;5074619;28;20049;-64
2021/12/08 19:33:56;;;;;;;9.95;4.13;;;3.50;99.90;;;;;;5074662;28;20059;-63
2021/12/08 19:36:23;;;;;;;10.25;4.03;;;3.80;99.90;;;;;;5090383;28;20144;-65
2021/12/08 19:38:52;;;;;;;9.20;4.28;;;3.40;99.90;;;;;;5074176;28;20511;-64
2021/12/08 19:41:19;;;;;;;11.07;4.40;;;3.40;99.90;;;;;;5091174;28;20088;-66
2021/12/08 19:43:45;;;;;;;7.68;3.72;;;;;;;;;;5073884;28;20143;-63
2021/12/08 19:46:11;;;;;;;11.25;4.43;;;3.40;99.90;;;;;;5074291;28;20059;-65
2021/12/08 19:48:38;;;;;;;10.10;4.70;;;3.30;99.90;;;;;;5074211;28;20423;-66
2021/12/08 19:51:06;;;;;;;9.90;4.53;;;3.30;99.90;;;;;;5073088;28;20048;-64
2021/12/08 19:53:32;;;;;;;11.18;4.70;;;3.30;99.90;;;;;;5073651;28;20040;-64
2021/12/08 19:55:58;;;;;;;;;;;3.30;99.90;;;;;;5073729;28;20048;-64
2021/12/08 19:58:24;;;;;;;11.35;4.60;;;3.30;99.90;;;;;;5074188;28;19921;-65
2021/12/08 20:00:52;;;;;;;11.85;4.43;;;3.30;99.90;;;;;;5074123;28;20093;-64
2021/12/08 20:03:19;;;;;;;10.38;4.45;;;3.20;99.90;;;;;;5073769;28;20048;-67
2021/12/08 20:05:46;;;;;;;9.02;4.47;;;3.30;99.90;;;;;;5072855;28;20059;-65
2021/12/08 20:08:12;;;;;;;49.03;27.48;;;3.20;99.90;;;;;;5073958;28;20056;-65
2021/12/08 20:10:41;;;;;;;12.98;7.80;;;4.20;99.90;;;;;;5059973;28;20086;-65
2021/12/08 20:13:08;;;;;;;14.73;4.90;;;3.20;99.90;;;;;;5064312;28;20045;-65
2021/12/08 20:15:36;;;;;;;10.43;6.93;;;3.20;99.90;;;;;;5053859;28;20127;-64
2021/12/08 20:18:04;;;;;;;10.90;4.97;;;3.20;99.90;;;;;;5052804;28;20496;-64
2021/12/08 20:20:30;;;;;;;8.48;4.93;;;3.10;99.90;;;;;;5053743;28;20045;-65
2021/12/08 20:22:56;;;;;;;9.27;4.65;;;3.10;99.90;;;;;;5052574;28;20041;-64
2021/12/08 20:25:24;;;;;;;10.48;4.53;;;3.00;99.90;;;;;;5069079;28;20390;-63
2021/12/08 20:27:50;;;;;;;9.93;5.35;;;3.10;99.90;;;;;;5064202;28;20476;-66
2021/12/08 20:30:50;;;;;;;11.68;5.35;;;3.50;99.90;;;;;;5070602;28;20056;-63
2021/12/08 20:33:16;;;;;;;13.93;5.18;;;3.10;99.90;;;;;;5054469;28;20053;-63
2021/12/08 20:35:42;;;;;;;12.20;5.18;;;3.20;99.90;;;;;;5052297;28;20072;-62
2021/12/08 20:38:11;;;;;;;9.73;5.18;;;3.10;99.90;;;;;;5052459;28;20477;-62
2021/12/08 20:40:40;;;;;;;11.18;5.18;;;3.00;99.90;;;;;;5053562;28;20056;-64
2021/12/08 20:43:08;;;;;;;13.10;5.15;;;3.10;99.90;;;;;;5053774;28;20077;-63
2021/12/08 20:45:37;;;;;;;11.43;5.40;;;3.00;99.90;;;;;;5053552;28;20511;-62
2021/12/08 20:48:03;;;;;;;7.85;5.07;;;2.90;99.90;;;;;;5053428;28;20056;-63
2021/12/08 20:50:29;;;;;;;11.75;6.82;;;2.90;99.90;;;;;;5062938;28;20052;-65
2021/12/08 20:52:56;;;;;;;14.40;6.03;;;3.00;99.90;;;;;;5074050;28;20052;-64
2021/12/08 20:55:22;;;;;;;13.02;5.32;;;2.90;99.90;;;;;;5072370;28;20044;-63
2021/12/08 20:57:49;;;;;;;10.32;5.50;;;3.70;99.90;;;;;;5072434;28;20472;-63
2021/12/08 21:00:32;;;;;;;12.20;5.50;;;3.00;99.90;;;;;;5072422;28;20052;-63
2021/12/08 21:03:01;;;;;;;11.27;5.40;;;3.00;99.90;;;;;;5072332;28;20087;-63
2021/12/08 21:05:29;;;;;;;16.77;6.10;;;3.00;99.90;;;;;;5072976;28;20126;-64
2021/12/08 21:07:54;;;;;;;9.32;5.15;;;3.00;99.90;;;;;;5077183;28;20449;-64
2021/12/08 21:10:24;;;;;;;8.50;5.53;;;3.00;99.90;;;;;;5077397;28;20095;-63
2021/12/08 21:12:50;;;;;;;8.98;5.45;;;3.00;99.90;;;;;;5077779;28;20070;-63
2021/12/08 21:15:18;;;;;;;9.65;5.10;;;3.00;99.90;;;;;;5076085;28;20480;-63
2021/12/08 21:17:46;;;;;;;12.25;5.60;;;3.00;99.90;;;;;;5077103;28;20369;-63
2021/12/08 21:20:15;;;;;;;8.40;5.18;;;3.00;99.90;;;;;;5076143;28;20049;-64
2021/12/08 21:22:41;;;;;;;14.20;5.55;;;2.90;99.90;;;;;;5077035;28;20045;-64
2021/12/08 21:25:08;;;;;;;16.98;6.30;;;2.90;99.90;;;;;;5073158;28;20404;-64
2021/12/08 21:27:34;;;;;;;23.27;11.82;;;2.90;99.90;;;;;;5057542;28;20151;-64
2021/12/08 21:30:00;;;;;;;16.50;8.07;;;3.20;99.90;;;;;;5040078;28;20060;-63
2021/12/08 21:32:26;;;;;;;10.30;6.60;;;3.10;99.90;;;;;;5057402;28;20049;-64
2021/12/08 21:34:59;;;;;;;9.68;6.55;;;2.90;99.90;;;;;;5056057;28;20045;-64
2021/12/08 21:37:27;;;;;;;13.45;7.15;;;2.90;99.90;;;;;;5060248;28;20072;-63
2021/12/08 21:39:52;;;;;;;12.65;6.40;;;2.90;99.90;;;;;;5065215;28;20178;-64
2021/12/08 21:42:18;;;;;;;12.40;5.93;;;2.80;99.90;;;;;;5074254;28;20120;-62
2021/12/08 21:44:44;;;;;;;10.40;5.97;;;2.80;99.90;;;;;;5072998;28;20056;-63
2021/12/08 21:47:09;;;;;;;13.82;5.38;;;2.90;99.90;;;;;;5064690;28;20436;-64
